sensor_id;sensor_type;location;lat;lon;timestamp;pressure;altitude;pressure_sealevel;temperature;humidity
76794;BME280;65745;50.278;18.192;2023-05-19T00:00:09;100680.83;;;10.51;72.61
76794;BME280;65745;50.278;18.192;2023-05-19T00:03:05;100676.66;;;10.55;72.25
76794;BME280;65745;50.278;18.192;2023-05-19T00:05:39;100674.13;;;10.52;72.12
76794;BME280;65745;50.278;18.192;2023-05-19T00:08:16;100672.23;;;10.46;72.35
76794;BME280;65745;50.278;18.192;2023-05-19T00:10:50;100669.49;;;10.47;72.25
76794;BME280;65745;50.278;18.192;2023-05-19T00:13:23;100666.44;;;10.43;71.96
76794;BME280;65745;50.278;18.192;2023-05-19T00:15:56;100660.48;;;10.40;72.41
76794;BME280;65745;50.278;18.192;2023-05-19T00:18:29;100660.87;;;10.31;72.56
76794;BME280;65745;50.278;18.192;2023-05-19T00:21:01;100658.07;;;10.30;72.66
76794;BME280;65745;50.278;18.192;2023-05-19T00:23:33;100659.61;;;10.29;72.73
76794;BME280;65745;50.278;18.192;2023-05-19T00:26:05;100656.29;;;10.33;73.03
76794;BME280;65745;50.278;18.192;2023-05-19T00:28:37;100658.31;;;10.37;73.18
76794;BME280;65745;50.278;18.192;2023-05-19T00:31:09;100657.32;;;10.38;73.09
76794;BME280;65745;50.278;18.192;2023-05-19T00:33:41;100654.75;;;10.43;72.70
76794;BME280;65745;50.278;18.192;2023-05-19T00:36:14;100652.91;;;10.45;72.47
76794;BME280;65745;50.278;18.192;2023-05-19T00:38:46;100649.63;;;10.40;72.22
76794;BME280;65745;50.278;18.192;2023-05-19T00:41:18;100652.58;;;10.35;72.71
76794;BME280;65745;50.278;18.192;2023-05-19T00:43:51;100653.12;;;10.31;72.58
76794;BME280;65745;50.278;18.192;2023-05-19T00:46:23;100649.52;;;10.32;72.54
76794;BME280;65745;50.278;18.192;2023-05-19T00:48:55;100649.25;;;10.29;72.38
76794;BME280;65745;50.278;18.192;2023-05-19T00:51:28;100645.37;;;10.26;72.45
76794;BME280;65745;50.278;18.192;2023-05-19T00:54:01;100649.78;;;10.24;72.74
76794;BME280;65745;50.278;18.192;2023-05-19T00:56:33;100648.81;;;10.20;73.26
76794;BME280;65745;50.278;18.192;2023-05-19T00:59:06;100645.33;;;10.19;73.75
76794;BME280;65745;50.278;18.192;2023-05-19T01:01:39;100641.69;;;10.24;73.07
76794;BME280;65745;50.278;18.192;2023-05-19T01:04:11;100638.13;;;10.26;73.07
76794;BME280;65745;50.278;18.192;2023-05-19T01:06:47;100638.84;;;10.26;73.07
76794;BME280;65745;50.278;18.192;2023-05-19T01:09:24;100634.64;;;10.24;72.92
76794;BME280;65745;50.278;18.192;2023-05-19T01:11:57;100633.10;;;10.19;72.76
76794;BME280;65745;50.278;18.192;2023-05-19T01:14:30;100637.94;;;10.15;73.11
76794;BME280;65745;50.278;18.192;2023-05-19T01:17:08;100636.71;;;10.14;72.81
76794;BME280;65745;50.278;18.192;2023-05-19T01:19:55;100634.52;;;10.11;72.87
76794;BME280;65745;50.278;18.192;2023-05-19T01:22:42;100634.32;;;10.05;73.23
76794;BME280;65745;50.278;18.192;2023-05-19T01:25:38;100629.94;;;10.08;73.27
76794;BME280;65745;50.278;18.192;2023-05-19T01:28:41;100626.44;;;10.11;73.37
76794;BME280;65745;50.278;18.192;2023-05-19T01:31:18;100628.33;;;10.16;73.75
76794;BME280;65745;50.278;18.192;2023-05-19T01:33:54;100628.64;;;10.25;73.32
76794;BME280;65745;50.278;18.192;2023-05-19T01:36:28;100629.07;;;10.27;73.12
76794;BME280;65745;50.278;18.192;2023-05-19T01:39:02;100625.39;;;10.25;73.34
76794;BME280;65745;50.278;18.192;2023-05-19T01:41:36;100624.75;;;10.22;72.86
76794;BME280;65745;50.278;18.192;2023-05-19T01:44:11;100621.11;;;10.11;73.06
76794;BME280;65745;50.278;18.192;2023-05-19T01:46:44;100620.10;;;10.02;73.50
76794;BME280;65745;50.278;18.192;2023-05-19T01:49:16;100614.55;;;9.96;73.37
76794;BME280;65745;50.278;18.192;2023-05-19T01:51:49;100616.23;;;9.89;73.63
76794;BME280;65745;50.278;18.192;2023-05-19T01:54:21;100617.64;;;9.91;73.76
76794;BME280;65745;50.278;18.192;2023-05-19T01:57:02;100616.23;;;9.94;74.04
76794;BME280;65745;50.278;18.192;2023-05-19T01:59:50;100610.14;;;9.98;73.97
76794;BME280;65745;50.278;18.192;2023-05-19T02:02:32;100612.67;;;10.06;73.96
76794;BME280;65745;50.278;18.192;2023-05-19T02:05:15;100609.52;;;10.10;73.86
76794;BME280;65745;50.278;18.192;2023-05-19T02:08:00;100611.33;;;10.08;73.85
76794;BME280;65745;50.278;18.192;2023-05-19T02:10:38;100611.45;;;10.06;73.69
76794;BME280;65745;50.278;18.192;2023-05-19T02:13:14;100605.96;;;10.01;73.95
76794;BME280;65745;50.278;18.192;2023-05-19T02:15:49;100599.26;;;9.97;73.73
76794;BME280;65745;50.278;18.192;2023-05-19T02:18:23;100593.82;;;9.93;73.77
76794;BME280;65745;50.278;18.192;2023-05-19T02:20:55;100590.84;;;9.87;74.28
76794;BME280;65745;50.278;18.192;2023-05-19T02:23:27;100590.21;;;9.78;74.31
76794;BME280;65745;50.278;18.192;2023-05-19T02:26:00;100590.14;;;9.76;74.39
76794;BME280;65745;50.278;18.192;2023-05-19T02:28:32;100593.48;;;9.78;74.54
76794;BME280;65745;50.278;18.192;2023-05-19T02:31:04;100595.62;;;9.80;74.68
76794;BME280;65745;50.278;18.192;2023-05-19T02:33:38;100596.69;;;9.81;74.30
76794;BME280;65745;50.278;18.192;2023-05-19T02:36:11;100592.81;;;9.84;73.94
76794;BME280;65745;50.278;18.192;2023-05-19T02:38:44;100591.27;;;9.84;73.89
76794;BME280;65745;50.278;18.192;2023-05-19T02:41:16;100591.41;;;9.83;73.91
76794;BME280;65745;50.278;18.192;2023-05-19T02:43:48;100598.39;;;9.81;73.88
76794;BME280;65745;50.278;18.192;2023-05-19T02:46:20;100594.62;;;9.81;73.96
76794;BME280;65745;50.278;18.192;2023-05-19T02:48:53;100590.25;;;9.85;74.27
76794;BME280;65745;50.278;18.192;2023-05-19T02:51:25;100591.98;;;9.86;74.40
76794;BME280;65745;50.278;18.192;2023-05-19T02:53:57;100592.03;;;9.86;74.12
76794;BME280;65745;50.278;18.192;2023-05-19T02:56:29;100591.73;;;9.88;74.13
76794;BME280;65745;50.278;18.192;2023-05-19T02:59:01;100594.77;;;9.81;73.96
76794;BME280;65745;50.278;18.192;2023-05-19T03:01:34;100599.34;;;9.73;74.02
76794;BME280;65745;50.278;18.192;2023-05-19T03:04:07;100598.85;;;9.70;73.90
76794;BME280;65745;50.278;18.192;2023-05-19T03:06:40;100597.59;;;9.68;73.76
76794;BME280;65745;50.278;18.192;2023-05-19T03:09:15;100600.73;;;9.65;73.78
76794;BME280;65745;50.278;18.192;2023-05-19T03:11:47;100601.95;;;9.60;74.45
76794;BME280;65745;50.278;18.192;2023-05-19T03:14:19;100599.96;;;9.61;74.80
76794;BME280;65745;50.278;18.192;2023-05-19T03:16:54;100598.83;;;9.69;74.71
76794;BME280;65745;50.278;18.192;2023-05-19T03:19:27;100598.46;;;9.73;74.52
76794;BME280;65745;50.278;18.192;2023-05-19T03:22:02;100598.52;;;9.69;74.44
76794;BME280;65745;50.278;18.192;2023-05-19T03:24:35;100599.03;;;9.70;74.48
76794;BME280;65745;50.278;18.192;2023-05-19T03:27:08;100602.84;;;9.60;74.76
76794;BME280;65745;50.278;18.192;2023-05-19T03:29:40;100601.39;;;9.53;74.69
76794;BME280;65745;50.278;18.192;2023-05-19T03:32:13;100603.09;;;9.52;74.42
76794;BME280;65745;50.278;18.192;2023-05-19T03:34:45;100599.44;;;9.52;74.75
76794;BME280;65745;50.278;18.192;2023-05-19T03:37:17;100601.83;;;9.51;75.34
76794;BME280;65745;50.278;18.192;2023-05-19T03:39:50;100602.18;;;9.51;75.24
76794;BME280;65745;50.278;18.192;2023-05-19T03:42:24;100601.38;;;9.53;75.90
76794;BME280;65745;50.278;18.192;2023-05-19T03:44:57;100603.95;;;9.53;75.41
76794;BME280;65745;50.278;18.192;2023-05-19T03:47:29;100602.14;;;9.50;75.60
76794;BME280;65745;50.278;18.192;2023-05-19T03:50:22;100602.64;;;9.45;75.66
76794;BME280;65745;50.278;18.192;2023-05-19T03:52:59;100601.72;;;9.44;75.70
76794;BME280;65745;50.278;18.192;2023-05-19T03:55:34;100604.71;;;9.40;75.50
76794;BME280;65745;50.278;18.192;2023-05-19T03:58:07;100606.08;;;9.40;75.99
76794;BME280;65745;50.278;18.192;2023-05-19T04:00:41;100611.63;;;9.42;76.38
76794;BME280;65745;50.278;18.192;2023-05-19T04:03:13;100610.52;;;9.49;76.44
76794;BME280;65745;50.278;18.192;2023-05-19T04:05:45;100612.33;;;9.61;76.22
76794;BME280;65745;50.278;18.192;2023-05-19T04:08:18;100616.90;;;9.69;75.98
76794;BME280;65745;50.278;18.192;2023-05-19T04:10:50;100615.63;;;9.77;75.65
76794;BME280;65745;50.278;18.192;2023-05-19T04:13:23;100615.14;;;9.83;75.50
76794;BME280;65745;50.278;18.192;2023-05-19T04:15:55;100617.64;;;9.86;75.48
76794;BME280;65745;50.278;18.192;2023-05-19T04:18:29;100619.41;;;9.87;75.39
76794;BME280;65745;50.278;18.192;2023-05-19T04:21:01;100617.23;;;9.84;75.27
76794;BME280;65745;50.278;18.192;2023-05-19T04:23:33;100621.60;;;9.86;75.64
76794;BME280;65745;50.278;18.192;2023-05-19T04:26:07;100624.48;;;9.89;76.08
76794;BME280;65745;50.278;18.192;2023-05-19T04:28:40;100622.63;;;10.00;76.06
76794;BME280;65745;50.278;18.192;2023-05-19T04:31:14;100615.15;;;10.08;75.93
76794;BME280;65745;50.278;18.192;2023-05-19T04:33:47;100613.61;;;10.03;76.03
76794;BME280;65745;50.278;18.192;2023-05-19T04:36:20;100611.86;;;10.03;76.08
76794;BME280;65745;50.278;18.192;2023-05-19T04:38:53;100613.80;;;10.04;75.83
76794;BME280;65745;50.278;18.192;2023-05-19T04:41:32;100617.25;;;10.04;75.76
76794;BME280;65745;50.278;18.192;2023-05-19T04:44:06;100609.48;;;10.04;75.49
76794;BME280;65745;50.278;18.192;2023-05-19T04:46:39;100615.61;;;10.02;76.04
76794;BME280;65745;50.278;18.192;2023-05-19T04:49:13;100609.69;;;10.05;76.37
76794;BME280;65745;50.278;18.192;2023-05-19T04:51:45;100612.38;;;10.08;76.70
76794;BME280;65745;50.278;18.192;2023-05-19T04:54:25;100615.89;;;10.19;76.61
76794;BME280;65745;50.278;18.192;2023-05-19T04:56:59;100617.20;;;10.33;76.68
76794;BME280;65745;50.278;18.192;2023-05-19T04:59:32;100619.98;;;10.39;76.23
76794;BME280;65745;50.278;18.192;2023-05-19T05:02:05;100616.95;;;10.41;75.75
76794;BME280;65745;50.278;18.192;2023-05-19T05:04:38;100611.48;;;10.43;75.83
76794;BME280;65745;50.278;18.192;2023-05-19T05:07:13;100612.07;;;10.45;75.84
76794;BME280;65745;50.278;18.192;2023-05-19T05:09:46;100617.23;;;10.45;75.95
76794;BME280;65745;50.278;18.192;2023-05-19T05:12:20;100616.82;;;10.53;75.95
76794;BME280;65745;50.278;18.192;2023-05-19T05:14:54;100611.77;;;10.57;76.42
76794;BME280;65745;50.278;18.192;2023-05-19T05:17:27;100609.39;;;10.63;76.40
76794;BME280;65745;50.278;18.192;2023-05-19T05:20:00;100608.80;;;10.78;76.43
76794;BME280;65745;50.278;18.192;2023-05-19T05:22:35;100606.42;;;10.85;76.40
76794;BME280;65745;50.278;18.192;2023-05-19T05:25:11;100602.59;;;10.90;76.22
76794;BME280;65745;50.278;18.192;2023-05-19T05:27:45;100608.03;;;10.93;75.90
76794;BME280;65745;50.278;18.192;2023-05-19T05:30:17;100609.70;;;10.96;75.55
76794;BME280;65745;50.278;18.192;2023-05-19T05:32:50;100613.38;;;10.98;75.53
76794;BME280;65745;50.278;18.192;2023-05-19T05:35:36;100619.21;;;10.97;75.52
76794;BME280;65745;50.278;18.192;2023-05-19T05:38:09;100626.11;;;11.04;75.64
76794;BME280;65745;50.278;18.192;2023-05-19T05:40:42;100627.27;;;11.07;75.30
76794;BME280;65745;50.278;18.192;2023-05-19T05:43:14;100631.99;;;11.16;75.74
76794;BME280;65745;50.278;18.192;2023-05-19T05:45:51;100636.71;;;11.24;75.68
76794;BME280;65745;50.278;18.192;2023-05-19T05:48:24;100636.32;;;11.28;75.23
76794;BME280;65745;50.278;18.192;2023-05-19T05:50:58;100632.55;;;11.35;74.97
76794;BME280;65745;50.278;18.192;2023-05-19T05:53:35;100631.54;;;11.42;74.61
76794;BME280;65745;50.278;18.192;2023-05-19T05:56:14;100634.12;;;11.42;74.82
76794;BME280;65745;50.278;18.192;2023-05-19T05:58:51;100632.86;;;11.52;74.55
76794;BME280;65745;50.278;18.192;2023-05-19T06:01:24;100633.96;;;11.55;74.43
76794;BME280;65745;50.278;18.192;2023-05-19T06:03:56;100635.36;;;11.62;74.35
76794;BME280;65745;50.278;18.192;2023-05-19T06:06:29;100640.33;;;11.72;74.47
76794;BME280;65745;50.278;18.192;2023-05-19T06:09:04;100639.09;;;11.83;74.46
76794;BME280;65745;50.278;18.192;2023-05-19T06:11:36;100641.63;;;11.87;74.66
76794;BME280;65745;50.278;18.192;2023-05-19T06:14:09;100642.13;;;11.93;74.41
76794;BME280;65745;50.278;18.192;2023-05-19T06:17:07;100647.41;;;11.90;74.04
76794;BME280;65745;50.278;18.192;2023-05-19T06:19:39;100652.42;;;11.91;73.69
76794;BME280;65745;50.278;18.192;2023-05-19T06:22:12;100652.74;;;11.96;73.41
76794;BME280;65745;50.278;18.192;2023-05-19T06:24:44;100650.14;;;12.03;73.47
76794;BME280;65745;50.278;18.192;2023-05-19T06:27:16;100646.26;;;12.13;73.32
76794;BME280;65745;50.278;18.192;2023-05-19T06:29:49;100644.91;;;12.21;73.35
76794;BME280;65745;50.278;18.192;2023-05-19T06:32:23;100645.66;;;12.24;72.99
76794;BME280;65745;50.278;18.192;2023-05-19T06:34:56;100645.42;;;12.28;72.85
76794;BME280;65745;50.278;18.192;2023-05-19T06:37:28;100640.61;;;12.35;72.95
76794;BME280;65745;50.278;18.192;2023-05-19T06:40:01;100639.83;;;12.46;73.38
76794;BME280;65745;50.278;18.192;2023-05-19T06:42:34;100640.13;;;12.58;73.49
76794;BME280;65745;50.278;18.192;2023-05-19T06:45:17;100638.05;;;12.73;73.80
76794;BME280;65745;50.278;18.192;2023-05-19T06:47:53;100642.15;;;12.86;72.97
76794;BME280;65745;50.278;18.192;2023-05-19T06:50:28;100638.33;;;13.00;72.87
76794;BME280;65745;50.278;18.192;2023-05-19T06:53:01;100637.79;;;13.15;72.32
76794;BME280;65745;50.278;18.192;2023-05-19T06:55:33;100637.98;;;13.15;72.04
76794;BME280;65745;50.278;18.192;2023-05-19T06:58:22;100638.77;;;13.19;71.74
76794;BME280;65745;50.278;18.192;2023-05-19T07:00:54;100638.38;;;13.26;71.26
76794;BME280;65745;50.278;18.192;2023-05-19T07:03:28;100640.98;;;13.18;70.58
76794;BME280;65745;50.278;18.192;2023-05-19T07:06:01;100636.27;;;13.15;70.73
76794;BME280;65745;50.278;18.192;2023-05-19T07:08:35;100630.77;;;13.17;70.70
76794;BME280;65745;50.278;18.192;2023-05-19T07:11:09;100636.02;;;13.13;70.54
76794;BME280;65745;50.278;18.192;2023-05-19T07:13:42;100636.67;;;13.04;70.28
76794;BME280;65745;50.278;18.192;2023-05-19T07:16:15;100638.13;;;12.99;70.24
76794;BME280;65745;50.278;18.192;2023-05-19T07:18:47;100639.55;;;13.02;70.22
76794;BME280;65745;50.278;18.192;2023-05-19T07:21:20;100638.29;;;13.07;70.44
76794;BME280;65745;50.278;18.192;2023-05-19T07:23:52;100637.00;;;13.10;70.75
76794;BME280;65745;50.278;18.192;2023-05-19T07:26:25;100640.97;;;13.17;70.82
76794;BME280;65745;50.278;18.192;2023-05-19T07:28:57;100640.87;;;13.21;70.26
76794;BME280;65745;50.278;18.192;2023-05-19T07:31:30;100641.10;;;13.24;70.24
76794;BME280;65745;50.278;18.192;2023-05-19T07:34:03;100638.02;;;13.33;70.07
76794;BME280;65745;50.278;18.192;2023-05-19T07:36:36;100639.79;;;13.43;69.55
76794;BME280;65745;50.278;18.192;2023-05-19T07:39:08;100641.26;;;13.48;69.38
76794;BME280;65745;50.278;18.192;2023-05-19T07:41:41;100640.55;;;13.47;68.38
76794;BME280;65745;50.278;18.192;2023-05-19T07:44:13;100642.02;;;13.43;68.99
76794;BME280;65745;50.278;18.192;2023-05-19T07:46:45;100641.69;;;13.44;68.91
76794;BME280;65745;50.278;18.192;2023-05-19T07:49:17;100642.64;;;13.48;68.88
76794;BME280;65745;50.278;18.192;2023-05-19T07:51:50;100640.70;;;13.55;68.80
76794;BME280;65745;50.278;18.192;2023-05-19T07:54:22;100641.98;;;13.58;68.42
76794;BME280;65745;50.278;18.192;2023-05-19T07:56:54;100639.75;;;13.59;68.37
76794;BME280;65745;50.278;18.192;2023-05-19T07:59:27;100639.74;;;13.68;68.71
76794;BME280;65745;50.278;18.192;2023-05-19T08:01:59;100641.33;;;13.78;68.67
76794;BME280;65745;50.278;18.192;2023-05-19T08:04:32;100645.69;;;13.80;68.68
76794;BME280;65745;50.278;18.192;2023-05-19T08:07:04;100648.63;;;13.80;69.17
76794;BME280;65745;50.278;18.192;2023-05-19T08:09:36;100651.27;;;13.81;68.34
76794;BME280;65745;50.278;18.192;2023-05-19T08:12:09;100648.02;;;13.85;68.78
76794;BME280;65745;50.278;18.192;2023-05-19T08:14:41;100646.96;;;13.83;68.08
76794;BME280;65745;50.278;18.192;2023-05-19T08:17:13;100645.45;;;13.76;68.07
76794;BME280;65745;50.278;18.192;2023-05-19T08:19:46;100649.13;;;13.70;68.13
76794;BME280;65745;50.278;18.192;2023-05-19T08:22:18;100648.30;;;13.62;68.29
76794;BME280;65745;50.278;18.192;2023-05-19T08:24:50;100644.69;;;13.55;68.16
76794;BME280;65745;50.278;18.192;2023-05-19T08:27:22;100645.08;;;13.49;67.92
76794;BME280;65745;50.278;18.192;2023-05-19T08:29:55;100647.94;;;13.53;68.13
76794;BME280;65745;50.278;18.192;2023-05-19T08:32:27;100650.02;;;13.53;68.43
76794;BME280;65745;50.278;18.192;2023-05-19T08:34:59;100648.61;;;13.51;68.45
76794;BME280;65745;50.278;18.192;2023-05-19T08:37:31;100649.35;;;13.54;68.47
76794;BME280;65745;50.278;18.192;2023-05-19T08:40:05;100646.58;;;13.54;67.92
76794;BME280;65745;50.278;18.192;2023-05-19T08:42:38;100643.61;;;13.53;67.74
76794;BME280;65745;50.278;18.192;2023-05-19T08:45:11;100646.64;;;13.58;67.88
76794;BME280;65745;50.278;18.192;2023-05-19T08:47:46;100648.34;;;13.56;67.43
76794;BME280;65745;50.278;18.192;2023-05-19T08:50:30;100651.89;;;13.51;67.82
76794;BME280;65745;50.278;18.192;2023-05-19T08:53:11;100651.90;;;13.52;68.21
76794;BME280;65745;50.278;18.192;2023-05-19T08:56:07;100652.91;;;13.60;68.42
76794;BME280;65745;50.278;18.192;2023-05-19T08:58:41;100651.89;;;13.69;68.67
76794;BME280;65745;50.278;18.192;2023-05-19T09:01:15;100652.46;;;13.90;68.53
76794;BME280;65745;50.278;18.192;2023-05-19T09:03:48;100653.10;;;14.06;68.11
76794;BME280;65745;50.278;18.192;2023-05-19T09:06:20;100650.28;;;14.14;67.67
76794;BME280;65745;50.278;18.192;2023-05-19T09:08:55;100653.03;;;14.22;66.99
76794;BME280;65745;50.278;18.192;2023-05-19T09:11:27;100650.50;;;14.36;67.44
76794;BME280;65745;50.278;18.192;2023-05-19T09:14:00;100647.20;;;14.44;65.79
76794;BME280;65745;50.278;18.192;2023-05-19T09:16:32;100648.48;;;14.48;66.08
76794;BME280;65745;50.278;18.192;2023-05-19T09:19:05;100649.48;;;14.57;66.23
76794;BME280;65745;50.278;18.192;2023-05-19T09:21:45;100649.35;;;14.70;66.22
76794;BME280;65745;50.278;18.192;2023-05-19T09:24:17;100650.78;;;14.74;66.27
76794;BME280;65745;50.278;18.192;2023-05-19T09:26:49;100646.13;;;14.76;65.91
76794;BME280;65745;50.278;18.192;2023-05-19T09:29:22;100645.48;;;14.79;65.98
76794;BME280;65745;50.278;18.192;2023-05-19T09:31:55;100645.61;;;14.87;66.08
76794;BME280;65745;50.278;18.192;2023-05-19T09:34:31;100644.21;;;14.99;65.44
76794;BME280;65745;50.278;18.192;2023-05-19T09:37:03;100640.14;;;15.06;65.45
76794;BME280;65745;50.278;18.192;2023-05-19T09:39:35;100641.14;;;15.03;64.69
76794;BME280;65745;50.278;18.192;2023-05-19T09:42:09;100639.70;;;14.99;64.54
76794;BME280;65745;50.278;18.192;2023-05-19T09:44:41;100641.89;;;15.06;64.55
76794;BME280;65745;50.278;18.192;2023-05-19T09:47:14;100633.14;;;15.14;64.76
76794;BME280;65745;50.278;18.192;2023-05-19T09:49:47;100634.45;;;15.08;64.45
76794;BME280;65745;50.278;18.192;2023-05-19T09:52:21;100636.33;;;15.05;64.49
76794;BME280;65745;50.278;18.192;2023-05-19T09:54:54;100634.98;;;15.09;65.11
76794;BME280;65745;50.278;18.192;2023-05-19T09:57:31;100633.52;;;15.17;64.66
76794;BME280;65745;50.278;18.192;2023-05-19T10:00:06;100632.00;;;15.20;65.04
76794;BME280;65745;50.278;18.192;2023-05-19T10:02:55;100632.48;;;15.17;65.08
76794;BME280;65745;50.278;18.192;2023-05-19T10:05:29;100630.05;;;15.17;65.07
76794;BME280;65745;50.278;18.192;2023-05-19T10:08:03;100626.27;;;15.19;64.17
76794;BME280;65745;50.278;18.192;2023-05-19T10:10:40;100623.79;;;15.15;64.35
76794;BME280;65745;50.278;18.192;2023-05-19T10:13:12;100621.64;;;15.11;64.08
76794;BME280;65745;50.278;18.192;2023-05-19T10:15:47;100621.09;;;15.09;64.37
76794;BME280;65745;50.278;18.192;2023-05-19T10:18:25;100622.17;;;15.11;64.87
76794;BME280;65745;50.278;18.192;2023-05-19T10:21:00;100620.65;;;15.14;65.05
76794;BME280;65745;50.278;18.192;2023-05-19T10:23:33;100618.09;;;15.18;64.48
76794;BME280;65745;50.278;18.192;2023-05-19T10:26:06;100611.49;;;15.18;64.35
76794;BME280;65745;50.278;18.192;2023-05-19T10:28:41;100613.47;;;15.22;64.74
76794;BME280;65745;50.278;18.192;2023-05-19T10:31:18;100615.33;;;15.19;64.34
76794;BME280;65745;50.278;18.192;2023-05-19T10:34:08;100611.79;;;15.27;65.11
76794;BME280;65745;50.278;18.192;2023-05-19T10:36:48;100616.87;;;15.45;65.29
76794;BME280;65745;50.278;18.192;2023-05-19T10:39:24;100615.50;;;15.58;64.47
76794;BME280;65745;50.278;18.192;2023-05-19T10:42:05;100618.22;;;15.70;64.42
76794;BME280;65745;50.278;18.192;2023-05-19T10:44:52;100618.80;;;15.77;63.11
76794;BME280;65745;50.278;18.192;2023-05-19T10:47:29;100613.10;;;15.79;63.81
76794;BME280;65745;50.278;18.192;2023-05-19T10:50:02;100614.41;;;15.88;63.92
76794;BME280;65745;50.278;18.192;2023-05-19T10:52:39;100613.90;;;15.90;62.93
76794;BME280;65745;50.278;18.192;2023-05-19T10:55:13;100613.05;;;15.74;63.05
76794;BME280;65745;50.278;18.192;2023-05-19T10:57:55;100612.96;;;15.66;63.63
76794;BME280;65745;50.278;18.192;2023-05-19T11:00:31;100610.52;;;15.64;63.58
76794;BME280;65745;50.278;18.192;2023-05-19T11:03:14;100609.51;;;15.68;64.10
76794;BME280;65745;50.278;18.192;2023-05-19T11:05:47;100610.10;;;15.75;63.72
76794;BME280;65745;50.278;18.192;2023-05-19T11:08:33;100609.76;;;15.75;64.06
76794;BME280;65745;50.278;18.192;2023-05-19T11:11:15;100611.89;;;15.79;64.03
76794;BME280;65745;50.278;18.192;2023-05-19T11:13:51;100614.13;;;15.78;63.55
76794;BME280;65745;50.278;18.192;2023-05-19T11:16:32;100615.91;;;15.83;63.69
76794;BME280;65745;50.278;18.192;2023-05-19T11:19:06;100613.52;;;15.88;63.55
76794;BME280;65745;50.278;18.192;2023-05-19T11:21:49;100613.48;;;15.82;62.64
76794;BME280;65745;50.278;18.192;2023-05-19T11:24:38;100610.30;;;15.61;62.06
76794;BME280;65745;50.278;18.192;2023-05-19T11:27:26;100612.20;;;15.58;63.00
76794;BME280;65745;50.278;18.192;2023-05-19T11:29:59;100608.96;;;15.66;63.64
76794;BME280;65745;50.278;18.192;2023-05-19T11:32:33;100610.28;;;15.75;63.28
76794;BME280;65745;50.278;18.192;2023-05-19T11:35:07;100612.46;;;15.67;62.36
76794;BME280;65745;50.278;18.192;2023-05-19T11:37:40;100610.59;;;15.56;62.40
76794;BME280;65745;50.278;18.192;2023-05-19T11:40:15;100607.87;;;15.47;63.15
76794;BME280;65745;50.278;18.192;2023-05-19T11:42:48;100610.67;;;15.49;63.08
76794;BME280;65745;50.278;18.192;2023-05-19T11:45:26;100610.98;;;15.47;63.05
76794;BME280;65745;50.278;18.192;2023-05-19T11:48:01;100613.16;;;15.53;63.12
76794;BME280;65745;50.278;18.192;2023-05-19T11:50:34;100609.30;;;15.51;63.00
76794;BME280;65745;50.278;18.192;2023-05-19T11:53:11;100610.61;;;15.45;63.36
76794;BME280;65745;50.278;18.192;2023-05-19T11:55:45;100613.30;;;15.38;62.23
76794;BME280;65745;50.278;18.192;2023-05-19T11:58:25;100616.79;;;15.39;62.93
76794;BME280;65745;50.278;18.192;2023-05-19T12:01:03;100612.85;;;15.44;63.49
76794;BME280;65745;50.278;18.192;2023-05-19T12:03:36;100610.55;;;15.52;63.65
76794;BME280;65745;50.278;18.192;2023-05-19T12:06:09;100609.89;;;15.54;63.03
76794;BME280;65745;50.278;18.192;2023-05-19T12:08:43;100609.27;;;15.60;62.91
76794;BME280;65745;50.278;18.192;2023-05-19T12:11:15;100606.84;;;15.62;63.62
76794;BME280;65745;50.278;18.192;2023-05-19T12:13:53;100606.42;;;15.71;63.23
76794;BME280;65745;50.278;18.192;2023-05-19T12:16:33;100604.05;;;15.78;63.30
76794;BME280;65745;50.278;18.192;2023-05-19T12:19:07;100599.65;;;15.90;63.18
76794;BME280;65745;50.278;18.192;2023-05-19T12:21:39;100599.44;;;16.04;63.21
76794;BME280;65745;50.278;18.192;2023-05-19T12:24:12;100597.61;;;16.14;63.40
76794;BME280;65745;50.278;18.192;2023-05-19T12:26:44;100589.98;;;16.15;62.88
76794;BME280;65745;50.278;18.192;2023-05-19T12:29:16;100590.00;;;16.18;62.20
76794;BME280;65745;50.278;18.192;2023-05-19T12:31:49;100589.09;;;16.14;62.54
76794;BME280;65745;50.278;18.192;2023-05-19T12:34:21;100586.84;;;16.17;62.73
76794;BME280;65745;50.278;18.192;2023-05-19T12:36:54;100590.86;;;16.18;62.82
76794;BME280;65745;50.278;18.192;2023-05-19T12:39:26;100591.56;;;16.18;62.69
76794;BME280;65745;50.278;18.192;2023-05-19T12:42:06;100586.38;;;16.21;62.91
76794;BME280;65745;50.278;18.192;2023-05-19T12:44:41;100581.89;;;16.25;62.67
76794;BME280;65745;50.278;18.192;2023-05-19T12:47:14;100577.78;;;16.34;62.95
76794;BME280;65745;50.278;18.192;2023-05-19T12:49:59;100578.15;;;16.38;62.53
76794;BME280;65745;50.278;18.192;2023-05-19T12:52:33;100573.66;;;16.40;61.96
76794;BME280;65745;50.278;18.192;2023-05-19T12:55:08;100576.83;;;16.45;62.09
76794;BME280;65745;50.278;18.192;2023-05-19T12:57:42;100576.01;;;16.51;62.18
76794;BME280;65745;50.278;18.192;2023-05-19T13:00:18;100573.89;;;16.49;62.09
76794;BME280;65745;50.278;18.192;2023-05-19T13:02:59;100570.92;;;16.49;62.03
76794;BME280;65745;50.278;18.192;2023-05-19T13:05:36;100570.45;;;16.53;62.56
76794;BME280;65745;50.278;18.192;2023-05-19T13:08:10;100564.96;;;16.63;62.24
76794;BME280;65745;50.278;18.192;2023-05-19T13:10:44;100565.19;;;16.71;62.21
76794;BME280;65745;50.278;18.192;2023-05-19T13:13:17;100561.08;;;16.83;62.36
76794;BME280;65745;50.278;18.192;2023-05-19T13:15:49;100563.02;;;16.89;61.99
76794;BME280;65745;50.278;18.192;2023-05-19T13:18:22;100567.05;;;16.95;62.16
76794;BME280;65745;50.278;18.192;2023-05-19T13:20:54;100569.50;;;16.96;61.75